Terminal Aerodrome Forecast
Issued by NWS

Home | Current Version | Previous Version | Graphics & Text | Print | Product List | Glossary On
Versions: 1 2 3 4 5 6 7 8 9 10 11 12 13 14 15 16 17 18
004
FTUS43 KABR 251131 AAC
TAFATY
TAF AMD
KATY 251131Z 2512/2612 36014G22KT 4SM BR OVC004
     FM251600 01016G24KT P6SM OVC008
     FM251900 01017G25KT P6SM VCSH OVC008
     FM252300 01017G24KT P6SM OVC008
     FM260200 36016G24KT 5SM -RA OVC008
     FM260500 36016G24KT P6SM OVC003=

USA.gov is the U.S. government's official web portal to all federal, state and local government web resources and services.